createdAt,value
2023-04-17T00:01:08.317Z,93.52
2023-04-17T00:05:09.718Z,92.65
2023-04-17T00:09:11.647Z,92.48
2023-04-17T00:13:14.638Z,93.08
2023-04-17T00:17:16.077Z,93.18
2023-04-17T00:21:17.480Z,93.02
2023-04-17T00:25:18.912Z,92.70
2023-04-17T00:29:21.633Z,93.98
2023-04-17T00:33:23.029Z,94.12
2023-04-17T00:37:24.388Z,94.48
2023-04-17T00:41:25.727Z,93.78
2023-04-17T00:45:28.643Z,93.69
2023-04-17T00:49:30.257Z,93.42
2023-04-17T00:53:31.873Z,93.76
2023-04-17T00:57:33.992Z,93.34
2023-04-17T01:01:36.792Z,92.80
2023-04-17T01:05:38.312Z,93.14
2023-04-17T01:09:39.774Z,93.22
2023-04-17T01:13:44.473Z,93.29
2023-04-17T01:17:47.211Z,93.87
2023-04-17T01:21:48.611Z,93.86
2023-04-17T01:25:51.373Z,93.49
2023-04-17T01:29:52.809Z,94.13
2023-04-17T01:33:54.218Z,94.46
2023-04-17T01:37:55.745Z,93.22
2023-04-17T01:41:58.502Z,93.85
2023-04-17T01:45:59.947Z,94.00
2023-04-17T01:50:01.418Z,94.30
2023-04-17T01:54:02.864Z,94.84
2023-04-17T01:58:05.594Z,95.26
2023-04-17T02:02:07.173Z,95.30
2023-04-17T02:06:09.058Z,95.93
2023-04-17T02:10:10.542Z,95.42
2023-04-17T02:14:13.279Z,95.63
2023-04-17T02:18:14.711Z,95.31
2023-04-17T02:22:16.077Z,95.91
2023-04-17T02:26:17.453Z,96.64
2023-04-17T02:30:20.328Z,96.78
2023-04-17T02:34:21.701Z,96.61
2023-04-17T02:38:23.056Z,95.46
2023-04-17T02:42:24.456Z,95.63
2023-04-17T02:46:27.301Z,96.34
2023-04-17T02:50:28.785Z,95.75
2023-04-17T02:54:30.188Z,96.04
2023-04-17T02:58:31.586Z,95.51
2023-04-17T03:02:34.629Z,96.15
2023-04-17T03:06:36.121Z,95.36
2023-04-17T03:10:37.535Z,95.72
2023-04-17T03:14:38.912Z,96.27
2023-04-17T03:18:41.697Z,96.68
2023-04-17T03:22:43.115Z,96.85
2023-04-17T03:26:44.522Z,97.21
2023-04-17T03:30:45.935Z,97.53
2023-04-17T03:34:48.664Z,98.43
2023-04-17T03:38:50.027Z,98.18
2023-04-17T03:42:51.431Z,97.72
2023-04-17T03:46:52.811Z,97.54
2023-04-17T03:50:55.564Z,97.68
2023-04-17T03:54:56.977Z,96.76
2023-04-17T03:58:58.353Z,96.67
2023-04-17T04:02:59.889Z,96.95
2023-04-17T04:07:02.801Z,97.09
2023-04-17T04:11:04.205Z,96.92
2023-04-17T04:15:06.176Z,97.32
2023-04-17T04:19:07.521Z,96.58
2023-04-17T04:23:10.286Z,96.96
2023-04-17T04:27:11.649Z,97.04
2023-04-17T04:31:13.096Z,97.54
2023-04-17T04:35:14.552Z,98.42
2023-04-17T04:39:17.625Z,98.34
2023-04-17T04:43:21.646Z,97.52
2023-04-17T04:47:23.775Z,97.63
2023-04-17T04:51:25.177Z,97.44
2023-04-17T04:55:27.913Z,98.13
2023-04-17T04:59:29.303Z,97.61
2023-04-17T05:03:30.864Z,96.96
2023-04-17T05:07:32.335Z,94.67
2023-04-17T05:11:35.170Z,93.72
2023-04-17T05:15:36.572Z,94.20
2023-04-17T05:19:37.919Z,94.47
2023-04-17T05:23:39.332Z,93.96
2023-04-17T05:27:42.096Z,92.08
2023-04-17T05:31:43.850Z,91.03
2023-04-17T05:35:45.299Z,89.24
2023-04-17T05:39:46.653Z,89.77
2023-04-17T05:43:49.388Z,90.79
2023-04-17T05:47:50.800Z,88.45
2023-04-17T05:51:52.328Z,88.07
2023-04-17T05:55:53.685Z,89.05
2023-04-17T05:59:56.406Z,89.20
2023-04-17T06:03:57.958Z,88.84
2023-04-17T06:07:59.695Z,88.09
2023-04-17T06:12:01.140Z,88.05
2023-04-17T06:16:03.885Z,86.52
2023-04-17T06:20:05.977Z,84.29
2023-04-17T06:24:08.476Z,82.93
2023-04-17T06:28:09.883Z,82.08
2023-04-17T06:32:12.673Z,81.82
2023-04-17T06:36:14.027Z,79.19
2023-04-17T06:40:15.424Z,79.00
2023-04-17T06:44:16.841Z,78.58
2023-04-17T06:48:19.567Z,77.12
2023-04-17T06:52:20.955Z,75.31
2023-04-17T06:56:22.313Z,75.81
2023-04-17T07:00:23.801Z,75.25
2023-04-17T07:04:26.538Z,74.64
2023-04-17T07:08:27.940Z,74.11
2023-04-17T07:12:29.377Z,74.60
2023-04-17T07:16:30.779Z,73.04
2023-04-17T07:20:33.546Z,71.42
2023-04-17T07:24:34.935Z,72.02
2023-04-17T07:28:36.528Z,70.90
2023-04-17T07:32:37.974Z,69.93
2023-04-17T07:36:40.723Z,70.55
2023-04-17T07:40:42.064Z,69.26
2023-04-17T07:44:43.412Z,66.54
2023-04-17T07:48:44.784Z,66.05
2023-04-17T07:52:47.628Z,62.72
2023-04-17T07:56:48.979Z,62.01
2023-04-17T08:00:50.458Z,63.53
2023-04-17T08:04:52.011Z,62.65
2023-04-17T08:08:54.991Z,62.17
2023-04-17T08:12:56.411Z,62.11
2023-04-17T08:16:57.767Z,62.12
2023-04-17T08:20:59.265Z,59.26
2023-04-17T08:25:02.108Z,57.58
2023-04-17T08:29:03.556Z,57.33
2023-04-17T08:33:05.008Z,57.22
2023-04-17T08:37:06.417Z,56.58
2023-04-17T08:41:09.872Z,56.25
2023-04-17T08:45:12.218Z,55.16
2023-04-17T08:49:13.975Z,54.17
2023-04-17T08:53:15.738Z,54.27
2023-04-17T08:57:18.565Z,54.25
2023-04-17T09:01:20.065Z,53.70
2023-04-17T09:05:22.400Z,52.20
2023-04-17T09:09:23.796Z,52.27
2023-04-17T09:13:26.601Z,55.02
2023-04-17T09:17:33.462Z,57.56
2023-04-17T09:21:34.975Z,60.18
2023-04-17T09:25:36.362Z,61.65
2023-04-17T09:29:54.538Z,62.66
2023-04-17T09:33:56.522Z,62.96
2023-04-17T09:37:58.129Z,63.81
2023-04-17T09:42:03.026Z,64.90
2023-04-17T09:46:06.511Z,66.23
2023-04-17T09:50:08.630Z,67.30
2023-04-17T09:54:10.957Z,67.82
2023-04-17T09:58:12.689Z,68.14
2023-04-17T10:02:16.112Z,67.02
2023-04-17T10:06:17.720Z,65.94
2023-04-17T10:10:23.469Z,64.26
2023-04-17T10:14:26.181Z,60.79
2023-04-17T10:18:28.962Z,59.04
2023-04-17T10:22:31.333Z,57.88
2023-04-17T10:26:35.817Z,56.37
2023-04-17T10:30:49.514Z,53.84
2023-04-17T10:34:52.518Z,55.03
2023-04-17T10:39:11.703Z,53.80
2023-04-17T10:43:13.733Z,53.19
2023-04-17T10:47:15.313Z,53.92
2023-04-17T10:51:35.278Z,54.52
2023-04-17T10:55:47.152Z,56.83
2023-04-17T11:00:08.886Z,60.30
2023-04-17T11:04:18.427Z,60.74
2023-04-17T11:08:19.827Z,59.13
2023-04-17T11:12:22.611Z,61.39
2023-04-17T11:16:24.115Z,60.23
2023-04-17T11:20:26.301Z,59.54
2023-04-17T11:24:28.625Z,63.52
2023-04-17T11:28:31.425Z,65.64
2023-04-17T11:32:36.013Z,66.25
2023-04-17T11:36:37.493Z,67.46
2023-04-17T11:40:42.372Z,69.90
2023-04-17T11:44:45.228Z,68.78
2023-04-17T11:48:46.596Z,69.28
2023-04-17T11:52:47.999Z,65.86
2023-04-17T11:56:57.691Z,66.09
2023-04-17T12:01:05.140Z,65.74
2023-04-17T12:05:13.121Z,62.27
2023-04-17T12:09:18.713Z,64.53
2023-04-17T12:13:20.101Z,62.13
2023-04-17T12:17:22.872Z,61.52
2023-04-17T12:21:24.315Z,62.29
2023-04-17T12:25:25.723Z,64.60
2023-04-17T12:29:40.613Z,63.51
2023-04-17T12:33:46.288Z,65.09
2023-04-17T12:37:48.451Z,64.94
2023-04-17T12:41:49.823Z,64.97
2023-04-17T12:45:52.304Z,65.42
2023-04-17T12:49:55.099Z,64.29
2023-04-17T12:53:56.514Z,61.48
2023-04-17T12:57:58.004Z,60.75
2023-04-17T13:01:59.439Z,62.52
2023-04-17T13:06:02.486Z,61.43
2023-04-17T13:10:04.162Z,62.14
2023-04-17T13:14:05.963Z,62.48
2023-04-17T13:18:07.393Z,61.50
2023-04-17T13:22:10.172Z,62.18
2023-04-17T13:26:11.549Z,61.98
2023-04-17T13:30:13.138Z,61.77
2023-04-17T13:34:14.530Z,60.85
2023-04-17T13:38:17.292Z,60.25
2023-04-17T13:42:19.000Z,61.67
2023-04-17T13:46:20.563Z,61.63
2023-04-17T13:50:22.007Z,59.66
2023-04-17T13:54:24.778Z,59.60
2023-04-17T13:58:26.156Z,59.20
2023-04-17T14:02:27.807Z,59.43
2023-04-17T14:06:29.843Z,58.98
2023-04-17T14:10:32.566Z,59.10
2023-04-17T14:14:34.001Z,58.98
2023-04-17T14:18:35.416Z,58.16
2023-04-17T14:22:36.814Z,54.98
2023-04-17T14:26:39.631Z,54.52
2023-04-17T14:30:40.972Z,52.97
2023-04-17T14:34:42.369Z,53.16
2023-04-17T14:38:43.759Z,52.65
2023-04-17T14:42:53.966Z,52.81
2023-04-17T14:46:56.173Z,52.84
2023-04-17T14:50:57.530Z,54.00
2023-04-17T14:54:58.927Z,54.38
2023-04-17T14:59:01.662Z,53.85
2023-04-17T15:03:03.114Z,54.94
2023-04-17T15:07:04.713Z,54.00
2023-04-17T15:11:06.348Z,54.06
2023-04-17T15:15:09.704Z,53.45
2023-04-17T15:19:11.302Z,53.29
2023-04-17T15:23:12.941Z,53.29
2023-04-17T15:27:14.356Z,56.28
2023-04-17T15:31:17.107Z,59.54
2023-04-17T15:35:18.554Z,62.14
2023-04-17T15:39:19.960Z,61.83
2023-04-17T15:43:21.693Z,63.37
2023-04-17T15:47:24.436Z,62.56
2023-04-17T15:51:25.789Z,63.30
2023-04-17T15:55:27.277Z,64.04
2023-04-17T15:59:28.660Z,64.13
2023-04-17T16:03:31.579Z,62.66
2023-04-17T16:07:33.068Z,60.90
2023-04-17T16:11:34.495Z,61.11
2023-04-17T16:15:35.955Z,60.05
2023-04-17T16:19:38.733Z,59.08
2023-04-17T16:23:40.477Z,59.55
2023-04-17T16:27:41.886Z,60.50
2023-04-17T16:31:43.291Z,65.27
2023-04-17T16:35:46.053Z,70.59
2023-04-17T16:39:47.462Z,74.20
2023-04-17T16:43:48.831Z,77.05
2023-04-17T16:47:50.322Z,79.11
2023-04-17T16:51:53.140Z,81.52
2023-04-17T16:55:56.569Z,83.45
2023-04-17T16:59:58.385Z,82.56
2023-04-17T17:03:59.804Z,84.40
2023-04-17T17:08:02.574Z,83.62
2023-04-17T17:12:04.078Z,82.11
2023-04-17T17:16:05.520Z,83.71
2023-04-17T17:20:07.750Z,83.35
2023-04-17T17:24:10.511Z,84.25
2023-04-17T17:28:11.909Z,84.29
2023-04-17T17:32:13.470Z,85.97
2023-04-17T17:36:15.039Z,87.74
2023-04-17T17:40:17.807Z,87.61
2023-04-17T17:44:19.472Z,85.72
2023-04-17T17:48:20.835Z,84.59
2023-04-17T17:52:22.270Z,84.35
2023-04-17T17:56:25.046Z,86.80
2023-04-17T18:00:26.559Z,87.31
2023-04-17T18:04:28.117Z,86.27
2023-04-17T18:08:29.573Z,87.33
2023-04-17T18:12:32.302Z,88.64
2023-04-17T18:16:33.694Z,89.96
2023-04-17T18:20:37.018Z,89.98
2023-04-17T18:24:38.405Z,89.90
2023-04-17T18:28:41.168Z,90.05
2023-04-17T18:32:42.570Z,90.47
2023-04-17T18:36:43.987Z,90.95
2023-04-17T18:40:45.375Z,90.95
2023-04-17T18:44:48.144Z,91.77
2023-04-17T18:48:49.516Z,91.96
2023-04-17T18:52:51.341Z,92.04
2023-04-17T18:56:52.863Z,91.93
2023-04-17T19:00:55.683Z,91.81
2023-04-17T19:04:57.264Z,92.62
2023-04-17T19:08:58.699Z,93.12
2023-04-17T19:13:00.049Z,92.84
2023-04-17T19:17:02.800Z,92.97
2023-04-17T19:21:04.316Z,93.39
2023-04-17T19:25:06.020Z,93.19
2023-04-17T19:29:07.424Z,93.46
2023-04-17T19:33:10.189Z,93.43
2023-04-17T19:37:11.756Z,93.35
2023-04-17T19:41:13.791Z,94.00
2023-04-17T19:45:15.258Z,93.74
2023-04-17T19:49:18.099Z,93.29
2023-04-17T19:53:19.503Z,92.46
2023-04-17T19:57:20.896Z,91.04
2023-04-17T20:01:22.276Z,90.90
2023-04-17T20:05:25.095Z,90.72
2023-04-17T20:09:26.460Z,90.22
2023-04-17T20:13:27.822Z,90.56
2023-04-17T20:17:29.258Z,89.55
2023-04-17T20:21:32.023Z,89.51
2023-04-17T20:25:33.407Z,89.41
2023-04-17T20:29:34.778Z,89.19
2023-04-17T20:33:36.197Z,89.73
2023-04-17T20:37:38.999Z,89.79
2023-04-17T20:41:40.717Z,90.47
2023-04-17T20:45:42.082Z,90.29
2023-04-17T20:49:43.464Z,89.49
2023-04-17T20:53:46.160Z,90.71
2023-04-17T20:57:47.692Z,90.42
2023-04-17T21:01:49.130Z,89.40
2023-04-17T21:05:50.617Z,90.36
2023-04-17T21:09:53.331Z,90.25
2023-04-17T21:13:54.668Z,89.50
2023-04-17T21:17:56.106Z,88.83
2023-04-17T21:21:58.069Z,90.23
2023-04-17T21:26:00.808Z,90.65
2023-04-17T21:30:02.183Z,90.92
2023-04-17T21:34:03.647Z,90.99
2023-04-17T21:38:05.014Z,89.79
2023-04-17T21:42:07.737Z,88.97
2023-04-17T21:46:09.680Z,88.98
2023-04-17T21:50:11.171Z,88.75
2023-04-17T21:54:12.725Z,88.90
2023-04-17T21:58:15.660Z,89.46
2023-04-17T22:02:17.084Z,88.84
2023-04-17T22:06:18.506Z,89.67
2023-04-17T22:10:19.935Z,89.49
2023-04-17T22:14:22.621Z,88.26
2023-04-17T22:18:23.978Z,87.46
2023-04-17T22:22:25.529Z,88.31
2023-04-17T22:26:26.887Z,87.98
2023-04-17T22:30:29.601Z,88.32
2023-04-17T22:34:30.922Z,87.58
2023-04-17T22:38:32.256Z,88.57
2023-04-17T22:42:33.630Z,88.39
2023-04-17T22:46:36.683Z,88.84
2023-04-17T22:50:38.031Z,87.30
2023-04-17T22:54:39.358Z,87.98
2023-04-17T22:58:40.688Z,87.88
2023-04-17T23:02:43.473Z,88.15
2023-04-17T23:06:44.909Z,87.89
2023-04-17T23:10:46.263Z,89.13
2023-04-17T23:14:47.586Z,88.07
2023-04-17T23:18:50.288Z,87.06
2023-04-17T23:22:51.633Z,87.40
2023-04-17T23:26:52.956Z,88.19
2023-04-17T23:30:54.283Z,88.26
2023-04-17T23:34:56.975Z,86.56
2023-04-17T23:38:58.309Z,86.70
2023-04-17T23:42:59.650Z,87.62
2023-04-17T23:47:01.105Z,87.53
2023-04-17T23:51:04.155Z,87.64
2023-04-17T23:55:06.093Z,88.04
2023-04-17T23:59:07.449Z,87.18
